Aeroporto :
LOGIN :

Iscrizione | Disclaimer

   EN    FR    IT 

 










Sommario :    VFR   VFR Marginale   IFR   IFR Intensivo   IFR Molto Intensivo
Visibilità : 
Base nubi : 
>= 8 km
>= 3000ft
5 / 8 km
1000 / 3000 ft
1500m / 5 km
500 / 1000 ft
800 / 1500m
200 / 500 ft
< 800m
< 200 ft
Simboli :   Temporali  Nebbia  Neve Forte  Precipitazioni Forti  Vento > 20 kt
SIGMETs :   Varie  Temporali  Ghiacco  Turbolenza  Onda orograficha  Ceneri Vulcaniche






- Altitudine del aeroporto : 755 ft
- Codice IATA : DRS


EDDC - Dresden Klotzsche

ULTIMO METAR :
  • 100650Z VRB02KT CAVOK 10/05 Q1026 NOSIG

METARs OBSOLETI :
  • 100620Z VRB02KT CAVOK 09/04 Q1026 NOSIG
  • 100550Z 15003KT 110V180 9999 SCT030 07/04 Q1026 NOSIG
  • 100520Z 09002KT 9999 FEW027 07/04 Q1026 NOSIG
  • 100450Z 07002KT CAVOK 07/04 Q1026 NOSIG
  • 100420Z VRB02KT 9999 FEW043 06/03 Q1026 NOSIG

TAF TAF EDDC
Valido dal 10 a 06 ore il 11 a 06 ore UTC


100500Z 1006/1106 VRB02KT CAVOK
BECMG 1006/1008 34005KT



MetMap, La meteo Aeronautica in un colpo d'occhio ! - Copyright ORBIFLY Dicembre 2007 - Disclaimer

ORBIFLY MET'MAP TEAM :

Programmazione e sviluppo : Alexandra Zaïnal
Concezione : Baudouin d'Aumeries
Aiuto per la programmazione : Marc-Olivier Méhu
Supporto tecnico e logistico : Manuel Goepfert
Aiuto per la traduzione : Arnaldo La Scala

Contatto : metmap@orbifly.com




FONTI E CREDITI :

   NOAA